Harwich Port, MA

10:34 AM EST on January 30, 2015 (GMT -0500)
N2KNL / KB1VAJ Amateur Radio | Change Station
CLOSE
Current Station
Personal Weather Station
Location: Harwich Weather, MA
Elevation: 36 ft
Nearby Weather Stations
Active Advisory: Winter Weather Advisory Active Notice: Public Information Statement

Elev 36 ft 41.68 °N, 70.06 °W | Updated 6 seconds ago

Mostly Cloudy
Mostly Cloudy
38.9 °F
Feels Like 39 °F
N
0.3
Wind Variable Wind from SE
Gusts 1.2 mph

Today
High -- | Low -- °F
--% Chance of Precip.
Yesterday
High -- | Low -- °F
Precip. -- in
6:54 AM 4:53 PM
Waxing Gibbous, 83% visible
Pressure 29.82 in
Visibility 3.0 miles
Clouds Overcast 400 ft
Windchill 39 °F
Dew Point 38 °F
Humidity 97%
Rainfall 0.00 in
Snow Depth Not available.
UV 1 out of 12
Pollen .10 out of 12
Air Quality Not available.
Flu Activity Not available.
METAR KCQX 301452Z AUTO 14005KT 3SM BR OVC004 03/03 A2981 RMK AO2 RAE52 CIG 003V008 SLP096 P0001 60002 T00330028 58020

More Conditions Fewer Conditions

Pressure 29.82 in
Visibility 3.0 miles
Clouds Overcast 400 ft
Windchill 39 °F
Dew Point 38 °F
Humidity 97%
Rainfall 0.00 in
Snow Depth Not available.
UV 1 out of 12
Pollen .10 out of 12
Air Quality Not available.
Flu Activity Not available.
METAR KCQX 301452Z AUTO 14005KT 3SM BR OVC004 03/03 A2981 RMK AO2 RAE52 CIG 003V008 SLP096 P0001 60002 T00330028 58020

More Conditions Fewer Conditions

10-Day Weather Forecast

Almanac

Astronomy

Jan. 30, 2015 Rise Set
Actual Time
Civil Twilight
Nautical Twilight
Astronomical Twilight
Moon
Length of Visible Light
Length of Day
Tomorrow will be .
, % of the Moon is Illuminated

Today's Extremes

State Highs State Lows

Community

WunderPhotos

Upload Photos

1,791,791 photos uploaded!

WunderBlogs® & News

Nearby

Air Quality

  Air Quality AQ Index Pollutant
Not available.

Snow Depth

Station Depth Elevation

Earthquake Activity

City Distance Mag. Time & Date
Minimum magnitude displayed is 2.5.

Coastal Water Temperatures

Place Temperature

Nearby Weather Stations